sensor_id;sensor_type;location;lat;lon;timestamp;pressure;altitude;pressure_sealevel;temperature;humidity
57048;BME280;42934;54.294;18.598;2023-05-25T00:00:48;101165.03;;;14.88;69.72
57048;BME280;42934;54.294;18.598;2023-05-25T00:03:31;101164.22;;;14.86;70.49
57048;BME280;42934;54.294;18.598;2023-05-25T00:06:00;101165.66;;;14.93;69.11
57048;BME280;42934;54.294;18.598;2023-05-25T00:08:29;101168.41;;;14.92;69.74
57048;BME280;42934;54.294;18.598;2023-05-25T00:10:58;101170.19;;;14.91;69.45
57048;BME280;42934;54.294;18.598;2023-05-25T00:13:28;101167.59;;;14.90;69.77
57048;BME280;42934;54.294;18.598;2023-05-25T00:15:57;101165.22;;;14.84;69.97
57048;BME280;42934;54.294;18.598;2023-05-25T00:18:26;101163.75;;;14.76;70.55
57048;BME280;42934;54.294;18.598;2023-05-25T00:20:54;101160.75;;;14.64;71.77
57048;BME280;42934;54.294;18.598;2023-05-25T00:23:23;101175.81;;;14.62;71.70
57048;BME280;42934;54.294;18.598;2023-05-25T00:25:52;101166.38;;;14.56;72.09
57048;BME280;42934;54.294;18.598;2023-05-25T00:28:21;101170.84;;;14.54;72.51
57048;BME280;42934;54.294;18.598;2023-05-25T00:30:51;101171.84;;;14.50;73.02
57048;BME280;42934;54.294;18.598;2023-05-25T00:33:21;101163.91;;;14.50;72.82
57048;BME280;42934;54.294;18.598;2023-05-25T00:35:50;101173.72;;;14.48;73.09
57048;BME280;42934;54.294;18.598;2023-05-25T00:38:21;101166.03;;;14.42;73.83
57048;BME280;42934;54.294;18.598;2023-05-25T00:40:53;101165.97;;;14.43;73.77
57048;BME280;42934;54.294;18.598;2023-05-25T00:43:22;101178.13;;;14.47;73.84
57048;BME280;42934;54.294;18.598;2023-05-25T00:45:52;101164.16;;;14.44;74.24
57048;BME280;42934;54.294;18.598;2023-05-25T00:48:21;101180.16;;;14.41;75.23
57048;BME280;42934;54.294;18.598;2023-05-25T00:50:52;101173.09;;;14.41;74.88
57048;BME280;42934;54.294;18.598;2023-05-25T00:53:26;101169.69;;;14.38;75.48
57048;BME280;42934;54.294;18.598;2023-05-25T00:55:56;101181.13;;;14.38;75.58
57048;BME280;42934;54.294;18.598;2023-05-25T00:58:28;101174.34;;;14.32;76.51
57048;BME280;42934;54.294;18.598;2023-05-25T01:00:59;101164.09;;;14.23;76.49
57048;BME280;42934;54.294;18.598;2023-05-25T01:03:30;101175.06;;;14.36;76.46
57048;BME280;42934;54.294;18.598;2023-05-25T01:06:06;101175.97;;;14.35;76.46
57048;BME280;42934;54.294;18.598;2023-05-25T01:08:37;101178.69;;;14.34;76.72
57048;BME280;42934;54.294;18.598;2023-05-25T01:11:07;101178.59;;;14.35;76.42
57048;BME280;42934;54.294;18.598;2023-05-25T01:13:39;101174.25;;;14.34;76.85
57048;BME280;42934;54.294;18.598;2023-05-25T01:16:09;101176.34;;;14.26;77.39
57048;BME280;42934;54.294;18.598;2023-05-25T01:18:41;101166.56;;;14.28;77.27
57048;BME280;42934;54.294;18.598;2023-05-25T01:21:13;101172.84;;;14.25;77.42
57048;BME280;42934;54.294;18.598;2023-05-25T01:23:46;101166.00;;;14.20;77.72
57048;BME280;42934;54.294;18.598;2023-05-25T01:26:15;101171.91;;;14.26;77.31
57048;BME280;42934;54.294;18.598;2023-05-25T01:28:46;101168.38;;;14.27;77.01
57048;BME280;42934;54.294;18.598;2023-05-25T01:31:17;101178.94;;;14.27;77.14
57048;BME280;42934;54.294;18.598;2023-05-25T01:33:49;101179.22;;;14.20;78.02
57048;BME280;42934;54.294;18.598;2023-05-25T01:36:19;101177.69;;;14.14;78.35
57048;BME280;42934;54.294;18.598;2023-05-25T01:38:48;101178.47;;;14.16;77.84
57048;BME280;42934;54.294;18.598;2023-05-25T01:41:17;101175.16;;;14.11;78.01
57048;BME280;42934;54.294;18.598;2023-05-25T01:43:46;101174.13;;;14.15;77.80
57048;BME280;42934;54.294;18.598;2023-05-25T01:46:17;101186.44;;;14.15;77.78
57048;BME280;42934;54.294;18.598;2023-05-25T01:48:51;101175.97;;;14.13;78.08
57048;BME280;42934;54.294;18.598;2023-05-25T01:51:26;101187.47;;;14.12;78.32
57048;BME280;42934;54.294;18.598;2023-05-25T01:53:57;101182.31;;;14.09;78.30
57048;BME280;42934;54.294;18.598;2023-05-25T01:56:27;101182.09;;;14.14;78.26
57048;BME280;42934;54.294;18.598;2023-05-25T01:58:58;101190.22;;;14.09;78.70
57048;BME280;42934;54.294;18.598;2023-05-25T02:01:29;101190.09;;;14.12;77.96
57048;BME280;42934;54.294;18.598;2023-05-25T02:03:58;101194.56;;;14.10;78.07
57048;BME280;42934;54.294;18.598;2023-05-25T02:06:29;101191.72;;;14.15;77.76
57048;BME280;42934;54.294;18.598;2023-05-25T02:09:05;101202.38;;;14.13;78.06
57048;BME280;42934;54.294;18.598;2023-05-25T02:11:34;101200.66;;;14.12;77.62
57048;BME280;42934;54.294;18.598;2023-05-25T02:14:03;101194.44;;;14.13;77.62
57048;BME280;42934;54.294;18.598;2023-05-25T02:16:32;101202.38;;;14.13;78.09
57048;BME280;42934;54.294;18.598;2023-05-25T02:19:01;101197.13;;;14.12;77.64
57048;BME280;42934;54.294;18.598;2023-05-25T02:21:31;101198.03;;;14.12;77.42
57048;BME280;42934;54.294;18.598;2023-05-25T02:24:03;101189.09;;;14.15;77.21
57048;BME280;42934;54.294;18.598;2023-05-25T02:26:31;101196.28;;;14.11;77.31
57048;BME280;42934;54.294;18.598;2023-05-25T02:29:00;101183.19;;;14.08;77.22
57048;BME280;42934;54.294;18.598;2023-05-25T02:31:29;101185.91;;;14.06;77.10
57048;BME280;42934;54.294;18.598;2023-05-25T02:33:58;101186.81;;;14.05;77.25
57048;BME280;42934;54.294;18.598;2023-05-25T02:36:28;101187.69;;;14.06;77.07
57048;BME280;42934;54.294;18.598;2023-05-25T02:38:59;101190.50;;;14.01;77.00
57048;BME280;42934;54.294;18.598;2023-05-25T02:41:28;101188.84;;;13.99;77.26
57048;BME280;42934;54.294;18.598;2023-05-25T02:43:57;101183.78;;;13.93;77.32
57048;BME280;42934;54.294;18.598;2023-05-25T02:46:26;101192.56;;;13.93;77.38
57048;BME280;42934;54.294;18.598;2023-05-25T02:48:55;101183.78;;;13.93;77.57
57048;BME280;42934;54.294;18.598;2023-05-25T02:51:25;101194.47;;;13.90;77.57
57048;BME280;42934;54.294;18.598;2023-05-25T02:53:57;101196.13;;;13.92;77.51
57048;BME280;42934;54.294;18.598;2023-05-25T02:56:27;101203.00;;;13.96;77.06
57048;BME280;42934;54.294;18.598;2023-05-25T02:58:57;101203.88;;;13.97;77.21
57048;BME280;42934;54.294;18.598;2023-05-25T03:01:30;101204.78;;;13.96;77.36
57048;BME280;42934;54.294;18.598;2023-05-25T03:04:02;101202.97;;;13.98;77.60
57048;BME280;42934;54.294;18.598;2023-05-25T03:06:35;101202.84;;;14.01;77.68
57048;BME280;42934;54.294;18.598;2023-05-25T03:09:17;101194.72;;;14.05;76.77
57048;BME280;42934;54.294;18.598;2023-05-25T03:11:50;101201.69;;;14.08;76.38
57048;BME280;42934;54.294;18.598;2023-05-25T03:14:20;101194.63;;;14.08;76.27
57048;BME280;42934;54.294;18.598;2023-05-25T03:16:58;101197.25;;;14.08;76.80
57048;BME280;42934;54.294;18.598;2023-05-25T03:19:27;101199.16;;;14.05;77.09
57048;BME280;42934;54.294;18.598;2023-05-25T03:21:56;101199.00;;;14.09;75.91
57048;BME280;42934;54.294;18.598;2023-05-25T03:24:25;101193.88;;;14.05;77.02
57048;BME280;42934;54.294;18.598;2023-05-25T03:27:00;101194.72;;;14.05;75.80
57048;BME280;42934;54.294;18.598;2023-05-25T03:29:29;101196.63;;;14.02;77.08
57048;BME280;42934;54.294;18.598;2023-05-25T03:31:58;101198.31;;;14.04;76.42
57048;BME280;42934;54.294;18.598;2023-05-25T03:34:28;101198.19;;;14.07;75.71
57048;BME280;42934;54.294;18.598;2023-05-25T03:37:01;101198.16;;;14.09;76.01
57048;BME280;42934;54.294;18.598;2023-05-25T03:39:31;101201.44;;;14.14;75.87
57048;BME280;42934;54.294;18.598;2023-05-25T03:42:01;101196.13;;;14.16;76.26
57048;BME280;42934;54.294;18.598;2023-05-25T03:44:30;101191.66;;;14.18;75.76
57048;BME280;42934;54.294;18.598;2023-05-25T03:46:59;101197.59;;;14.23;75.22
57048;BME280;42934;54.294;18.598;2023-05-25T03:49:28;101200.22;;;14.23;75.71
57048;BME280;42934;54.294;18.598;2023-05-25T03:51:58;101203.72;;;14.23;76.15
57048;BME280;42934;54.294;18.598;2023-05-25T03:54:28;101201.84;;;14.27;75.30
57048;BME280;42934;54.294;18.598;2023-05-25T03:56:56;101205.38;;;14.26;75.52
57048;BME280;42934;54.294;18.598;2023-05-25T03:59:27;101207.13;;;14.27;75.79
57048;BME280;42934;54.294;18.598;2023-05-25T04:01:56;101205.38;;;14.26;75.79
57048;BME280;42934;54.294;18.598;2023-05-25T04:04:25;101218.59;;;14.26;75.42
57048;BME280;42934;54.294;18.598;2023-05-25T04:06:54;101209.00;;;14.23;75.67
57048;BME280;42934;54.294;18.598;2023-05-25T04:09:23;101208.09;;;14.24;76.01
57048;BME280;42934;54.294;18.598;2023-05-25T04:11:52;101209.78;;;14.27;75.79
57048;BME280;42934;54.294;18.598;2023-05-25T04:14:21;101208.88;;;14.26;76.20
57048;BME280;42934;54.294;18.598;2023-05-25T04:16:52;101212.66;;;14.21;76.24
57048;BME280;42934;54.294;18.598;2023-05-25T04:19:21;101213.56;;;14.20;77.54
57048;BME280;42934;54.294;18.598;2023-05-25T04:21:50;101200.97;;;14.26;76.10
57048;BME280;42934;54.294;18.598;2023-05-25T04:24:20;101205.59;;;14.21;76.79
57048;BME280;42934;54.294;18.598;2023-05-25T04:26:49;101202.88;;;14.23;76.64
57048;BME280;42934;54.294;18.598;2023-05-25T04:29:18;101206.19;;;14.28;76.72
57048;BME280;42934;54.294;18.598;2023-05-25T04:32:23;101208.72;;;14.31;76.72
57048;BME280;42934;54.294;18.598;2023-05-25T04:35:15;101205.09;;;14.34;76.93
57048;BME280;42934;54.294;18.598;2023-05-25T04:37:48;101206.81;;;14.35;77.04
57048;BME280;42934;54.294;18.598;2023-05-25T04:40:18;101213.88;;;14.34;77.59
57048;BME280;42934;54.294;18.598;2023-05-25T04:42:48;101211.94;;;14.39;77.26
57048;BME280;42934;54.294;18.598;2023-05-25T04:45:21;101214.38;;;14.44;77.57
57048;BME280;42934;54.294;18.598;2023-05-25T04:47:52;101212.53;;;14.46;77.31
57048;BME280;42934;54.294;18.598;2023-05-25T04:50:21;101215.88;;;14.51;77.55
57048;BME280;42934;54.294;18.598;2023-05-25T04:52:51;101219.41;;;14.51;77.63
57048;BME280;42934;54.294;18.598;2023-05-25T04:55:20;101215.81;;;14.52;77.89
57048;BME280;42934;54.294;18.598;2023-05-25T04:57:49;101213.19;;;14.52;78.24
57048;BME280;42934;54.294;18.598;2023-05-25T05:00:20;101215.00;;;14.50;78.62
57048;BME280;42934;54.294;18.598;2023-05-25T05:02:54;101215.81;;;14.52;78.79
57048;BME280;42934;54.294;18.598;2023-05-25T05:05:23;101213.00;;;14.57;78.85
57048;BME280;42934;54.294;18.598;2023-05-25T05:07:54;101213.69;;;14.62;78.76
57048;BME280;42934;54.294;18.598;2023-05-25T05:10:25;101211.81;;;14.64;78.77
57048;BME280;42934;54.294;18.598;2023-05-25T05:12:56;101215.16;;;14.69;78.63
57048;BME280;42934;54.294;18.598;2023-05-25T05:15:26;101214.16;;;14.72;78.80
57048;BME280;42934;54.294;18.598;2023-05-25T05:17:57;101213.06;;;14.77;79.05
57048;BME280;42934;54.294;18.598;2023-05-25T05:20:27;101213.72;;;14.83;78.80
57048;BME280;42934;54.294;18.598;2023-05-25T05:22:56;101215.13;;;14.91;78.36
57048;BME280;42934;54.294;18.598;2023-05-25T05:25:25;101215.66;;;14.99;78.19
57048;BME280;42934;54.294;18.598;2023-05-25T05:27:54;101218.03;;;15.06;78.18
57048;BME280;42934;54.294;18.598;2023-05-25T05:30:26;101213.38;;;15.12;77.77
57048;BME280;42934;54.294;18.598;2023-05-25T05:32:57;101213.03;;;15.20;77.50
57048;BME280;42934;54.294;18.598;2023-05-25T05:35:30;101214.53;;;15.26;77.29
57048;BME280;42934;54.294;18.598;2023-05-25T05:38:06;101214.22;;;15.33;77.23
57048;BME280;42934;54.294;18.598;2023-05-25T05:40:35;101221.03;;;15.39;77.12
57048;BME280;42934;54.294;18.598;2023-05-25T05:43:04;101218.19;;;15.43;77.00
57048;BME280;42934;54.294;18.598;2023-05-25T05:45:33;101220.63;;;15.48;76.90
57048;BME280;42934;54.294;18.598;2023-05-25T05:48:04;101223.06;;;15.53;76.85
57048;BME280;42934;54.294;18.598;2023-05-25T05:50:36;101217.44;;;15.60;76.88
57048;BME280;42934;54.294;18.598;2023-05-25T05:53:09;101221.56;;;15.67;76.68
57048;BME280;42934;54.294;18.598;2023-05-25T05:55:38;101224.72;;;15.76;76.55
57048;BME280;42934;54.294;18.598;2023-05-25T05:58:07;101226.94;;;15.85;76.31
57048;BME280;42934;54.294;18.598;2023-05-25T06:00:36;101223.09;;;15.92;76.13
57048;BME280;42934;54.294;18.598;2023-05-25T06:03:07;101226.31;;;15.99;75.88
57048;BME280;42934;54.294;18.598;2023-05-25T06:05:37;101243.72;;;16.04;75.93
57048;BME280;42934;54.294;18.598;2023-05-25T06:08:06;101242.50;;;16.11;75.59
57048;BME280;42934;54.294;18.598;2023-05-25T06:10:36;101242.16;;;16.19;75.54
57048;BME280;42934;54.294;18.598;2023-05-25T06:13:05;101243.53;;;16.28;75.28
57048;BME280;42934;54.294;18.598;2023-05-25T06:15:35;101244.09;;;16.34;75.09
57048;BME280;42934;54.294;18.598;2023-05-25T06:18:10;101243.88;;;16.39;74.44
57048;BME280;42934;54.294;18.598;2023-05-25T06:20:39;101247.88;;;16.48;74.36
57048;BME280;42934;54.294;18.598;2023-05-25T06:23:08;101246.66;;;16.55;74.10
57048;BME280;42934;54.294;18.598;2023-05-25T06:25:40;101247.28;;;16.60;73.67
57048;BME280;42934;54.294;18.598;2023-05-25T06:28:10;101246.06;;;16.67;73.42
57048;BME280;42934;54.294;18.598;2023-05-25T06:30:39;101251.94;;;16.74;73.01
57048;BME280;42934;54.294;18.598;2023-05-25T06:33:07;101254.38;;;16.78;72.50
57048;BME280;42934;54.294;18.598;2023-05-25T06:35:38;101255.03;;;16.84;72.25
57048;BME280;42934;54.294;18.598;2023-05-25T06:38:07;101266.28;;;16.89;71.67
57048;BME280;42934;54.294;18.598;2023-05-25T06:40:36;101259.72;;;16.96;71.83
57048;BME280;42934;54.294;18.598;2023-05-25T06:43:05;101259.41;;;17.02;71.36
57048;BME280;42934;54.294;18.598;2023-05-25T06:45:57;101265.09;;;17.12;70.69
57048;BME280;42934;54.294;18.598;2023-05-25T06:48:26;101273.53;;;17.20;70.52
57048;BME280;42934;54.294;18.598;2023-05-25T06:50:56;101281.28;;;17.24;70.52
57048;BME280;42934;54.294;18.598;2023-05-25T06:53:25;101275.50;;;17.34;70.45
57048;BME280;42934;54.294;18.598;2023-05-25T06:55:54;101272.53;;;17.40;70.46
57048;BME280;42934;54.294;18.598;2023-05-25T06:58:22;101272.06;;;17.49;70.37
57048;BME280;42934;54.294;18.598;2023-05-25T07:00:51;101279.66;;;17.57;70.33
57048;BME280;42934;54.294;18.598;2023-05-25T07:03:20;101258.56;;;17.54;69.89
57048;BME280;42934;54.294;18.598;2023-05-25T07:05:49;101273.69;;;17.69;69.58
57048;BME280;42934;54.294;18.598;2023-05-25T07:08:19;101278.78;;;17.74;69.24
57048;BME280;42934;54.294;18.598;2023-05-25T07:10:48;101269.56;;;17.81;68.82
57048;BME280;42934;54.294;18.598;2023-05-25T07:13:17;101267.84;;;17.80;69.12
57048;BME280;42934;54.294;18.598;2023-05-25T07:15:46;101270.72;;;17.92;68.79
57048;BME280;42934;54.294;18.598;2023-05-25T07:18:15;101271.22;;;17.99;68.34
57048;BME280;42934;54.294;18.598;2023-05-25T07:20:44;101279.72;;;18.06;67.74
57048;BME280;42934;54.294;18.598;2023-05-25T07:23:14;101268.84;;;18.10;67.25
57048;BME280;42934;54.294;18.598;2023-05-25T07:25:45;101275.53;;;18.17;67.19
57048;BME280;42934;54.294;18.598;2023-05-25T07:28:13;101264.59;;;18.24;66.54
57048;BME280;42934;54.294;18.598;2023-05-25T07:30:42;101274.91;;;18.30;66.35
57048;BME280;42934;54.294;18.598;2023-05-25T07:33:11;101280.78;;;18.35;66.39
57048;BME280;42934;54.294;18.598;2023-05-25T07:35:40;101289.31;;;18.42;66.39
57048;BME280;42934;54.294;18.598;2023-05-25T07:38:09;101283.66;;;18.48;66.11
57048;BME280;42934;54.294;18.598;2023-05-25T07:40:38;101292.13;;;18.54;65.88
57048;BME280;42934;54.294;18.598;2023-05-25T07:43:08;101286.56;;;18.59;65.70
57048;BME280;42934;54.294;18.598;2023-05-25T07:45:38;101294.28;;;18.64;65.37
57048;BME280;42934;54.294;18.598;2023-05-25T07:48:07;101300.09;;;18.70;65.25
57048;BME280;42934;54.294;18.598;2023-05-25T07:50:36;101305.28;;;18.73;64.69
57048;BME280;42934;54.294;18.598;2023-05-25T07:53:05;101304.19;;;18.77;64.75
57048;BME280;42934;54.294;18.598;2023-05-25T07:55:34;101299.28;;;18.86;65.25
57048;BME280;42934;54.294;18.598;2023-05-25T07:58:02;101310.50;;;18.91;64.99
57048;BME280;42934;54.294;18.598;2023-05-25T08:00:35;101305.72;;;18.97;64.34
57048;BME280;42934;54.294;18.598;2023-05-25T08:03:04;101303.44;;;19.05;64.48
57048;BME280;42934;54.294;18.598;2023-05-25T08:05:35;101311.84;;;19.14;64.27
57048;BME280;42934;54.294;18.598;2023-05-25T08:08:05;101315.13;;;19.19;63.63
57048;BME280;42934;54.294;18.598;2023-05-25T08:10:41;101314.81;;;19.23;63.98
57048;BME280;42934;54.294;18.598;2023-05-25T08:13:12;101318.00;;;19.30;63.61
57048;BME280;42934;54.294;18.598;2023-05-25T08:15:45;101317.06;;;19.31;62.95
57048;BME280;42934;54.294;18.598;2023-05-25T08:18:17;101318.75;;;19.32;62.60
57048;BME280;42934;54.294;18.598;2023-05-25T08:20:47;101315.91;;;19.35;62.08
57048;BME280;42934;54.294;18.598;2023-05-25T08:23:17;101322.13;;;19.36;61.71
57048;BME280;42934;54.294;18.598;2023-05-25T08:25:46;101327.16;;;19.40;62.01
57048;BME280;42934;54.294;18.598;2023-05-25T08:28:15;101330.41;;;19.45;61.77
57048;BME280;42934;54.294;18.598;2023-05-25T08:30:47;101334.59;;;19.49;60.91
57048;BME280;42934;54.294;18.598;2023-05-25T08:33:16;101329.78;;;19.56;61.68
57048;BME280;42934;54.294;18.598;2023-05-25T08:35:46;101332.28;;;19.59;61.41
57048;BME280;42934;54.294;18.598;2023-05-25T08:38:17;101329.44;;;19.62;61.43
57048;BME280;42934;54.294;18.598;2023-05-25T08:40:47;101331.75;;;19.68;61.33
57048;BME280;42934;54.294;18.598;2023-05-25T08:43:20;101332.16;;;19.77;61.23
57048;BME280;42934;54.294;18.598;2023-05-25T08:45:51;101335.38;;;19.82;60.27
57048;BME280;42934;54.294;18.598;2023-05-25T08:48:20;101335.13;;;19.86;60.21
57048;BME280;42934;54.294;18.598;2023-05-25T08:51:08;101335.78;;;19.90;59.95
57048;BME280;42934;54.294;18.598;2023-05-25T08:53:39;101331.78;;;19.97;60.10
57048;BME280;42934;54.294;18.598;2023-05-25T08:56:09;101331.78;;;19.97;59.07
57048;BME280;42934;54.294;18.598;2023-05-25T08:58:41;101342.09;;;20.03;59.02
57048;BME280;42934;54.294;18.598;2023-05-25T09:01:15;101346.94;;;20.11;58.85
57048;BME280;42934;54.294;18.598;2023-05-25T09:03:45;101349.53;;;20.12;58.64
57048;BME280;42934;54.294;18.598;2023-05-25T09:06:17;101345.88;;;20.13;58.34
57048;BME280;42934;54.294;18.598;2023-05-25T09:08:46;101349.41;;;20.14;57.19
57048;BME280;42934;54.294;18.598;2023-05-25T09:11:17;101352.84;;;20.16;57.79
57048;BME280;42934;54.294;18.598;2023-05-25T09:14:03;101348.16;;;20.19;57.59
57048;BME280;42934;54.294;18.598;2023-05-25T09:16:33;101355.22;;;20.20;57.88
57048;BME280;42934;54.294;18.598;2023-05-25T09:19:04;101358.66;;;20.23;58.14
57048;BME280;42934;54.294;18.598;2023-05-25T09:21:33;101347.78;;;20.26;57.62
57048;BME280;42934;54.294;18.598;2023-05-25T09:24:02;101354.66;;;20.30;57.59
57048;BME280;42934;54.294;18.598;2023-05-25T09:26:31;101356.94;;;20.36;57.71
57048;BME280;42934;54.294;18.598;2023-05-25T09:29:01;101354.94;;;20.39;57.30
57048;BME280;42934;54.294;18.598;2023-05-25T09:31:30;101369.91;;;20.42;56.93
57048;BME280;42934;54.294;18.598;2023-05-25T09:34:00;101352.84;;;20.45;57.08
57048;BME280;42934;54.294;18.598;2023-05-25T09:36:29;101366.06;;;20.46;57.06
57048;BME280;42934;54.294;18.598;2023-05-25T09:38:58;101360.66;;;20.48;57.19
57048;BME280;42934;54.294;18.598;2023-05-25T09:41:28;101358.19;;;20.45;57.00
57048;BME280;42934;54.294;18.598;2023-05-25T09:43:57;101356.19;;;20.48;57.36
57048;BME280;42934;54.294;18.598;2023-05-25T09:46:38;101356.84;;;20.52;57.11
57048;BME280;42934;54.294;18.598;2023-05-25T09:49:08;101352.28;;;20.54;57.01
57048;BME280;42934;54.294;18.598;2023-05-25T09:51:37;101357.31;;;20.58;57.15
57048;BME280;42934;54.294;18.598;2023-05-25T09:54:07;101347.34;;;20.62;56.31
57048;BME280;42934;54.294;18.598;2023-05-25T09:56:37;101345.22;;;20.67;56.22
57048;BME280;42934;54.294;18.598;2023-05-25T09:59:05;101341.28;;;20.73;56.21
57048;BME280;42934;54.294;18.598;2023-05-25T10:01:34;101344.63;;;20.76;56.26
57048;BME280;42934;54.294;18.598;2023-05-25T10:04:04;101348.69;;;20.82;56.28
57048;BME280;42934;54.294;18.598;2023-05-25T10:06:34;101341.25;;;20.87;56.62
57048;BME280;42934;54.294;18.598;2023-05-25T10:09:05;101348.09;;;20.91;56.05
57048;BME280;42934;54.294;18.598;2023-05-25T10:11:34;101348.78;;;20.95;56.51
57048;BME280;42934;54.294;18.598;2023-05-25T10:14:05;101340.78;;;20.95;56.53
57048;BME280;42934;54.294;18.598;2023-05-25T10:16:35;101343.97;;;21.00;56.35
57048;BME280;42934;54.294;18.598;2023-05-25T10:19:09;101344.28;;;20.95;56.21
57048;BME280;42934;54.294;18.598;2023-05-25T10:21:43;101348.59;;;20.98;56.52
57048;BME280;42934;54.294;18.598;2023-05-25T10:24:17;101350.94;;;21.02;56.24
57048;BME280;42934;54.294;18.598;2023-05-25T10:26:52;101343.19;;;21.12;56.40
57048;BME280;42934;54.294;18.598;2023-05-25T10:29:21;101345.47;;;21.18;56.63
57048;BME280;42934;54.294;18.598;2023-05-25T10:31:52;101340.75;;;21.22;56.01
57048;BME280;42934;54.294;18.598;2023-05-25T10:34:21;101337.75;;;21.14;56.36
57048;BME280;42934;54.294;18.598;2023-05-25T10:36:52;101347.88;;;21.08;56.75
57048;BME280;42934;54.294;18.598;2023-05-25T10:39:22;101345.09;;;21.10;56.64
57048;BME280;42934;54.294;18.598;2023-05-25T10:41:52;101336.78;;;21.15;56.29
57048;BME280;42934;54.294;18.598;2023-05-25T10:44:21;101347.78;;;21.10;56.03
57048;BME280;42934;54.294;18.598;2023-05-25T10:46:51;101340.97;;;21.19;55.97
57048;BME280;42934;54.294;18.598;2023-05-25T10:49:29;101342.06;;;21.29;55.72
57048;BME280;42934;54.294;18.598;2023-05-25T10:52:00;101348.81;;;21.35;55.33
57048;BME280;42934;54.294;18.598;2023-05-25T10:54:30;101346.25;;;21.33;55.23
57048;BME280;42934;54.294;18.598;2023-05-25T10:57:09;101347.41;;;21.29;55.10
57048;BME280;42934;54.294;18.598;2023-05-25T10:59:41;101311.25;;;21.10;55.75
57048;BME280;42934;54.294;18.598;2023-05-25T11:02:13;101345.78;;;21.26;55.61
57048;BME280;42934;54.294;18.598;2023-05-25T11:04:43;101337.97;;;21.23;55.46
57048;BME280;42934;54.294;18.598;2023-05-25T11:07:16;101334.56;;;21.21;55.73
57048;BME280;42934;54.294;18.598;2023-05-25T11:09:55;101340.91;;;21.33;55.59
57048;BME280;42934;54.294;18.598;2023-05-25T11:12:25;101343.09;;;21.41;54.93
57048;BME280;42934;54.294;18.598;2023-05-25T11:15:12;101338.28;;;21.46;55.09
57048;BME280;42934;54.294;18.598;2023-05-25T11:20:29;101346.66;;;21.54;54.48
57048;BME280;42934;54.294;18.598;2023-05-25T11:23:00;101347.22;;;21.59;54.71
57048;BME280;42934;54.294;18.598;2023-05-25T11:25:48;101348.47;;;21.53;54.31
57048;BME280;42934;54.294;18.598;2023-05-25T11:28:17;101353.06;;;21.51;54.42
57048;BME280;42934;54.294;18.598;2023-05-25T11:30:46;101348.00;;;21.47;54.83
57048;BME280;42934;54.294;18.598;2023-05-25T11:33:15;101347.81;;;21.50;53.82
57048;BME280;42934;54.294;18.598;2023-05-25T11:35:48;101345.69;;;21.55;53.78
57048;BME280;42934;54.294;18.598;2023-05-25T11:38:19;101352.56;;;21.59;53.94
57048;BME280;42934;54.294;18.598;2023-05-25T11:40:51;101357.13;;;21.57;53.62
57048;BME280;42934;54.294;18.598;2023-05-25T11:43:21;101353.47;;;21.45;53.96
57048;BME280;42934;54.294;18.598;2023-05-25T11:45:54;101354.31;;;21.46;54.17
57048;BME280;42934;54.294;18.598;2023-05-25T11:48:23;101352.06;;;21.40;53.93
57048;BME280;42934;54.294;18.598;2023-05-25T11:51:02;101353.97;;;21.38;54.49
57048;BME280;42934;54.294;18.598;2023-05-25T11:53:33;101353.97;;;21.38;54.35
57048;BME280;42934;54.294;18.598;2023-05-25T11:56:02;101357.78;;;21.33;54.04
57048;BME280;42934;54.294;18.598;2023-05-25T11:58:35;101353.31;;;21.34;54.34
57048;BME280;42934;54.294;18.598;2023-05-25T12:01:14;101361.22;;;21.36;54.11
57048;BME280;42934;54.294;18.598;2023-05-25T12:03:47;101357.22;;;21.28;53.43
57048;BME280;42934;54.294;18.598;2023-05-25T12:06:24;101357.16;;;21.30;54.24
57048;BME280;42934;54.294;18.598;2023-05-25T12:08:56;101356.19;;;21.31;53.80
57048;BME280;42934;54.294;18.598;2023-05-25T12:11:26;101356.25;;;21.29;53.51
57048;BME280;42934;54.294;18.598;2023-05-25T12:13:56;101356.25;;;21.29;54.01
57048;BME280;42934;54.294;18.598;2023-05-25T12:16:26;101352.94;;;21.26;54.46
57048;BME280;42934;54.294;18.598;2023-05-25T12:18:56;101345.25;;;21.21;54.45
57048;BME280;42934;54.294;18.598;2023-05-25T12:21:25;101354.22;;;21.20;54.85
57048;BME280;42934;54.294;18.598;2023-05-25T12:23:55;101358.06;;;21.16;54.91
57048;BME280;42934;54.294;18.598;2023-05-25T12:26:24;101357.59;;;21.09;55.37
57048;BME280;42934;54.294;18.598;2023-05-25T12:28:56;101358.28;;;20.99;55.48
57048;BME280;42934;54.294;18.598;2023-05-25T12:31:25;101356.22;;;20.90;55.50
57048;BME280;42934;54.294;18.598;2023-05-25T12:34:02;101356.31;;;20.88;55.52
57048;BME280;42934;54.294;18.598;2023-05-25T12:36:41;101358.25;;;20.86;55.81
57048;BME280;42934;54.294;18.598;2023-05-25T12:39:13;101355.47;;;20.87;55.04
57048;BME280;42934;54.294;18.598;2023-05-25T12:41:43;101360.34;;;20.81;55.22
57048;BME280;42934;54.294;18.598;2023-05-25T12:44:16;101359.97;;;20.73;55.54
57048;BME280;42934;54.294;18.598;2023-05-25T12:46:44;101360.09;;;20.71;55.71
57048;BME280;42934;54.294;18.598;2023-05-25T12:49:24;101347.13;;;20.65;55.80
57048;BME280;42934;54.294;18.598;2023-05-25T12:51:53;101357.13;;;20.61;55.81
57048;BME280;42934;54.294;18.598;2023-05-25T12:54:39;101351.44;;;20.53;56.26
57048;BME280;42934;54.294;18.598;2023-05-25T12:57:10;101360.19;;;20.55;55.90
57048;BME280;42934;54.294;18.598;2023-05-25T12:59:40;101364.66;;;20.55;56.03
57048;BME280;42934;54.294;18.598;2023-05-25T13:02:10;101354.34;;;20.49;55.88